createdAt,value
2018-07-02T00:00:01.202Z,13.22
2018-07-02T00:02:28.532Z,13.25
2018-07-02T00:04:55.892Z,13.16
2018-07-02T00:07:24.395Z,13.02
2018-07-02T00:09:52.248Z,12.86
2018-07-02T00:12:20.321Z,12.71
2018-07-02T00:14:48.682Z,12.51
2018-07-02T00:20:06.477Z,11.99
2018-07-02T00:22:33.778Z,11.83
2018-07-02T00:25:01.062Z,11.72
2018-07-02T00:27:29.032Z,11.71
2018-07-02T00:29:56.365Z,11.68
2018-07-02T00:32:23.633Z,11.61
2018-07-02T00:34:50.896Z,11.56
2018-07-02T00:37:18.198Z,11.35
2018-07-02T00:39:45.440Z,11.08
2018-07-02T00:42:12.742Z,10.90
2018-07-02T00:44:39.987Z,10.73
2018-07-02T00:47:07.248Z,10.63
2018-07-02T00:49:34.486Z,10.60
2018-07-02T00:52:01.811Z,10.63
2018-07-02T00:54:29.096Z,10.53
2018-07-02T00:56:56.428Z,10.61
2018-07-02T00:59:23.698Z,10.60
2018-07-02T01:01:50.970Z,10.64
2018-07-02T01:04:18.245Z,10.68
2018-07-02T01:06:45.566Z,10.42
2018-07-02T01:09:12.814Z,10.12
2018-07-02T01:11:40.154Z,9.90
2018-07-02T01:14:07.415Z,9.83
2018-07-02T01:16:34.693Z,9.94
2018-07-02T01:19:01.978Z,9.99
2018-07-02T01:21:29.239Z,10.14
2018-07-02T01:23:56.568Z,10.20
2018-07-02T01:26:23.837Z,10.20
2018-07-02T01:28:51.117Z,10.15
2018-07-02T01:31:18.378Z,10.05
2018-07-02T01:33:45.716Z,10.09
2018-07-02T01:36:12.991Z,10.12
2018-07-02T01:38:40.302Z,10.11
2018-07-02T01:41:07.611Z,10.09
2018-07-02T01:43:34.909Z,9.81
2018-07-02T01:46:02.314Z,9.40
2018-07-02T01:48:29.595Z,9.25
2018-07-02T01:50:56.861Z,9.23
2018-07-02T01:53:24.518Z,9.31
2018-07-02T01:55:51.816Z,9.44
2018-07-02T01:58:19.141Z,9.61
2018-07-02T02:00:46.379Z,9.58
2018-07-02T02:03:13.686Z,9.63
2018-07-02T02:05:40.940Z,9.66
2018-07-02T02:08:08.255Z,9.66
2018-07-02T02:10:35.498Z,9.63
2018-07-02T02:13:02.782Z,9.54
2018-07-02T02:15:30.061Z,9.39
2018-07-02T02:17:57.374Z,9.32
2018-07-02T02:20:24.651Z,9.27
2018-07-02T02:22:51.934Z,9.07
2018-07-02T02:25:19.226Z,8.74
2018-07-02T02:27:46.483Z,8.50
2018-07-02T02:30:13.762Z,8.50
2018-07-02T02:32:40.999Z,8.65
2018-07-02T02:35:08.302Z,8.74
2018-07-02T02:37:35.648Z,8.60
2018-07-02T02:40:03.115Z,8.46
2018-07-02T02:42:30.578Z,8.44
2018-07-02T02:44:57.961Z,8.43
2018-07-02T02:47:25.278Z,8.50
2018-07-02T02:49:53.273Z,8.62
2018-07-02T02:52:20.602Z,8.70
2018-07-02T02:54:47.998Z,8.73
2018-07-02T02:57:15.412Z,8.67
2018-07-02T02:59:43.119Z,8.64
2018-07-02T03:02:10.446Z,8.69
2018-07-02T03:04:37.832Z,8.72
2018-07-02T03:07:05.677Z,8.81
2018-07-02T03:09:33.366Z,8.87
2018-07-02T03:12:00.732Z,8.78
2018-07-02T03:14:28.159Z,8.71
2018-07-02T03:16:55.539Z,8.67
2018-07-02T03:19:23.873Z,8.77
2018-07-02T03:21:52.965Z,8.77
2018-07-02T03:24:21.297Z,8.75
2018-07-02T03:26:48.675Z,8.85
2018-07-02T03:29:16.138Z,8.74
2018-07-02T03:31:43.665Z,8.59
2018-07-02T03:34:11.635Z,8.66
2018-07-02T03:36:39.305Z,8.75
2018-07-02T03:39:07.869Z,8.95
2018-07-02T03:41:35.299Z,9.10
2018-07-02T03:44:02.837Z,9.22
2018-07-02T03:46:30.289Z,9.25
2018-07-02T03:48:57.643Z,9.27
2018-07-02T03:51:25.035Z,9.29
2018-07-02T03:53:52.450Z,9.19
2018-07-02T03:56:19.907Z,9.02
2018-07-02T03:58:47.315Z,8.91
2018-07-02T04:01:14.803Z,8.88
2018-07-02T04:03:42.098Z,8.88
2018-07-02T04:06:09.526Z,8.87
2018-07-02T04:08:37.098Z,8.81
2018-07-02T04:11:04.485Z,8.81
2018-07-02T04:13:31.899Z,8.85
2018-07-02T04:15:59.360Z,8.93
2018-07-02T04:18:26.854Z,9.09
2018-07-02T04:20:54.355Z,9.27
2018-07-02T04:23:23.439Z,9.50
2018-07-02T04:25:52.491Z,9.71
2018-07-02T04:28:19.947Z,9.92
2018-07-02T04:30:47.447Z,10.16
2018-07-02T04:33:14.935Z,10.38
2018-07-02T04:35:42.299Z,10.62
2018-07-02T04:38:10.300Z,10.81
2018-07-02T04:40:37.790Z,11.01
2018-07-02T04:43:05.272Z,11.17
2018-07-02T04:45:33.618Z,11.39
2018-07-02T04:48:03.139Z,11.62
2018-07-02T04:50:30.748Z,11.82
2018-07-02T04:52:58.263Z,12.05
2018-07-02T04:55:25.715Z,12.25
2018-07-02T04:57:53.314Z,12.48
2018-07-02T05:00:21.005Z,12.69
2018-07-02T05:02:48.576Z,12.90
2018-07-02T05:05:17.628Z,13.13
2018-07-02T05:07:45.073Z,13.31
2018-07-02T05:10:12.603Z,13.54
2018-07-02T05:12:42.977Z,13.82
2018-07-02T05:15:10.863Z,14.08
2018-07-02T05:17:38.317Z,14.37
2018-07-02T05:20:05.754Z,14.66
2018-07-02T05:22:34.207Z,15.07
2018-07-02T05:25:02.285Z,15.49
2018-07-02T05:27:30.406Z,15.62
2018-07-02T05:29:57.794Z,15.69
2018-07-02T05:32:25.298Z,15.81
2018-07-02T05:34:52.697Z,15.96
2018-07-02T05:37:20.260Z,16.25
2018-07-02T05:39:55.081Z,16.56
2018-07-02T05:42:23.452Z,16.62
2018-07-02T05:44:51.627Z,17.12
2018-07-02T05:47:19.340Z,17.34
2018-07-02T05:49:46.849Z,17.54
2018-07-02T05:52:15.013Z,17.75
2018-07-02T06:35:54.059Z,20.39
2018-07-02T06:38:22.395Z,20.79
2018-07-02T06:40:50.825Z,20.69
2018-07-02T06:43:18.190Z,20.66
2018-07-02T06:45:45.670Z,20.96
2018-07-02T06:48:13.074Z,21.16
2018-07-02T06:50:40.451Z,20.96
2018-07-02T06:53:07.908Z,20.61
2018-07-02T06:55:35.547Z,20.80
2018-07-02T06:58:03.130Z,20.93
2018-07-02T07:00:30.601Z,20.74
2018-07-02T07:02:58.746Z,21.25
2018-07-02T07:05:26.192Z,21.57
2018-07-02T07:07:53.711Z,21.89
2018-07-02T07:10:31.293Z,21.70
2018-07-02T07:13:01.252Z,21.90
2018-07-02T07:15:28.672Z,21.92
2018-07-02T07:17:56.673Z,21.89
2018-07-02T07:20:26.558Z,22.05
2018-07-02T07:22:54.099Z,22.62
2018-07-02T07:25:22.916Z,22.89
2018-07-02T07:27:50.286Z,22.54
2018-07-02T07:30:20.214Z,22.96
2018-07-02T07:32:48.316Z,22.78
2018-07-02T07:35:15.777Z,23.10
2018-07-02T07:37:43.142Z,23.41
2018-07-02T07:40:11.334Z,23.86
2018-07-02T07:42:39.081Z,23.70
2018-07-02T07:45:06.631Z,23.33
2018-07-02T07:47:35.807Z,23.84
2018-07-02T07:50:05.220Z,23.93
2018-07-02T07:52:32.578Z,23.67
2018-07-02T07:54:59.963Z,23.96
2018-07-02T07:57:27.367Z,24.53
2018-07-02T07:59:54.871Z,24.42
2018-07-02T08:02:23.089Z,24.83
2018-07-02T08:04:50.437Z,24.80
2018-07-02T08:07:18.007Z,24.59
2018-07-02T08:09:45.396Z,24.91
2018-07-02T08:12:12.834Z,25.56
2018-07-02T08:14:40.192Z,25.96
2018-07-02T08:17:07.694Z,25.49
2018-07-02T08:19:35.864Z,25.77
2018-07-02T08:22:03.353Z,25.74
2018-07-02T08:24:30.765Z,26.27
2018-07-02T08:26:58.255Z,26.86
2018-07-02T08:29:25.651Z,26.21
2018-07-02T08:31:53.094Z,26.58
2018-07-02T08:34:21.100Z,26.26
2018-07-02T08:36:49.418Z,26.57
2018-07-02T08:39:16.851Z,26.48
2018-07-02T08:41:44.834Z,26.17
2018-07-02T08:44:12.555Z,25.66
2018-07-02T08:46:40.052Z,25.66
2018-07-02T08:49:07.429Z,25.93
2018-07-02T08:51:35.196Z,25.41
2018-07-02T08:54:02.703Z,26.07
2018-07-02T08:56:30.336Z,26.44
2018-07-02T08:58:57.720Z,26.63
2018-07-02T09:01:25.353Z,26.40
2018-07-02T09:03:53.443Z,27.18
2018-07-02T09:06:20.962Z,27.00
2018-07-02T09:08:48.412Z,26.08
2018-07-02T09:11:15.973Z,26.57
2018-07-02T09:13:44.096Z,26.40
2018-07-02T09:16:11.491Z,26.71
2018-07-02T09:18:38.963Z,27.05
2018-07-02T09:21:06.505Z,26.97
2018-07-02T09:23:33.949Z,27.20
2018-07-02T09:26:01.349Z,27.34
2018-07-02T09:28:28.887Z,27.29
2018-07-02T09:30:56.236Z,26.71
2018-07-02T09:33:23.627Z,26.15
2018-07-02T09:35:51.023Z,25.31
2018-07-02T09:38:18.503Z,25.38
2018-07-02T09:40:45.913Z,26.19
2018-07-02T09:43:13.207Z,26.55
2018-07-02T09:45:40.503Z,26.22
2018-07-02T09:48:07.807Z,26.39
2018-07-02T09:50:35.078Z,26.56
2018-07-02T09:53:02.360Z,26.93
2018-07-02T09:55:29.584Z,27.29
2018-07-02T09:57:56.866Z,27.34
2018-07-02T10:00:24.119Z,27.46
2018-07-02T10:02:52.364Z,27.46
2018-07-02T10:05:19.605Z,26.65
2018-07-02T10:07:46.882Z,27.65
2018-07-02T10:10:14.120Z,27.00
2018-07-02T10:12:41.439Z,26.63
2018-07-02T10:15:08.706Z,26.57
2018-07-02T10:17:35.958Z,26.06
2018-07-02T10:20:03.454Z,26.82
2018-07-02T10:22:30.741Z,27.12
2018-07-02T10:24:58.023Z,27.12
2018-07-02T10:27:25.309Z,27.88
2018-07-02T10:29:54.059Z,27.83
2018-07-02T10:32:21.304Z,27.00
2018-07-02T10:34:48.669Z,26.67
2018-07-02T10:37:15.866Z,26.69
2018-07-02T10:39:43.160Z,26.84
2018-07-02T10:42:10.516Z,26.53
2018-07-02T10:44:37.790Z,27.54
2018-07-02T10:47:05.200Z,27.29
2018-07-02T10:49:32.447Z,27.37
2018-07-02T10:52:00.341Z,27.78
2018-07-02T10:54:27.645Z,27.71
2018-07-02T10:56:54.906Z,27.28
2018-07-02T10:59:22.188Z,27.81
2018-07-02T11:01:49.462Z,27.87
2018-07-02T11:04:16.709Z,28.01
2018-07-02T11:06:43.966Z,27.38
2018-07-02T11:09:11.250Z,27.28
2018-07-02T11:11:38.493Z,28.14
2018-07-02T11:14:05.742Z,28.38
2018-07-02T11:16:33.031Z,27.86
2018-07-02T11:19:00.263Z,27.34
2018-07-02T11:21:27.739Z,27.67
2018-07-02T11:23:56.047Z,27.19
2018-07-02T11:26:25.073Z,26.61
2018-07-02T11:28:52.359Z,26.50
2018-07-02T11:31:19.612Z,26.85
2018-07-02T11:33:46.859Z,27.56
2018-07-02T11:36:14.553Z,27.74
2018-07-02T11:38:41.795Z,27.55
2018-07-02T11:41:09.134Z,28.04
2018-07-02T11:43:36.354Z,27.80
2018-07-02T11:46:03.658Z,27.89
2018-07-02T11:48:30.933Z,27.67
2018-07-02T11:50:58.242Z,28.04
2018-07-02T11:53:25.472Z,27.16
2018-07-02T11:55:52.743Z,26.65
2018-07-02T11:58:20.793Z,26.49
2018-07-02T12:00:48.037Z,26.97
2018-07-02T12:03:15.302Z,27.58
2018-07-02T12:05:42.700Z,28.00
2018-07-02T12:08:09.932Z,28.64
2018-07-02T12:10:37.194Z,28.29
2018-07-02T12:13:04.474Z,28.10
2018-07-02T12:15:31.745Z,28.54
2018-07-02T12:17:59.009Z,27.50
2018-07-02T12:20:26.267Z,27.05
2018-07-02T12:22:53.546Z,26.52
2018-07-02T12:25:20.808Z,27.07
2018-07-02T12:27:48.043Z,27.55
2018-07-02T12:30:15.431Z,27.72
2018-07-02T12:32:42.720Z,27.57
2018-07-02T12:35:09.958Z,27.93
2018-07-02T12:37:37.219Z,27.74
2018-07-02T12:40:04.481Z,26.62
2018-07-02T12:42:31.776Z,27.27
2018-07-02T12:44:59.034Z,27.42
2018-07-02T12:47:26.304Z,27.55
2018-07-02T12:49:53.559Z,27.04
2018-07-02T12:52:20.843Z,27.42
2018-07-02T12:54:48.104Z,28.16
2018-07-02T12:57:15.369Z,28.17
2018-07-02T12:59:42.607Z,28.62
2018-07-02T13:02:09.910Z,28.69
2018-07-02T13:04:37.146Z,27.88
2018-07-02T13:07:04.514Z,28.18
2018-07-02T13:09:31.748Z,27.18
2018-07-02T13:11:59.011Z,27.45
2018-07-02T13:14:26.294Z,27.85
2018-07-02T13:16:53.635Z,27.87
2018-07-02T13:19:20.918Z,27.74
2018-07-02T13:21:48.186Z,27.90
2018-07-02T13:24:15.439Z,28.08
2018-07-02T13:26:42.737Z,28.11
2018-07-02T13:29:10.015Z,28.03
2018-07-02T13:31:37.255Z,27.97
2018-07-02T13:34:04.525Z,27.25
2018-07-02T13:36:31.901Z,27.46
2018-07-02T13:38:59.131Z,28.25
2018-07-02T13:41:26.382Z,27.63
2018-07-02T13:43:53.894Z,27.24
2018-07-02T13:46:21.165Z,27.21
2018-07-02T13:48:48.475Z,27.31
2018-07-02T13:51:15.726Z,26.80
2018-07-02T13:53:43.025Z,27.24
2018-07-02T13:56:10.319Z,26.53
2018-07-02T13:58:37.645Z,26.89
2018-07-02T14:01:05.061Z,27.05
2018-07-02T14:03:32.554Z,26.33
2018-07-02T14:05:59.820Z,26.11
2018-07-02T14:08:27.152Z,26.67
2018-07-02T14:10:54.425Z,26.96
2018-07-02T14:13:21.678Z,27.23
2018-07-02T14:15:49.215Z,27.16
2018-07-02T14:18:16.487Z,26.32
2018-07-02T14:20:43.752Z,26.37
2018-07-02T14:23:11.012Z,26.32
2018-07-02T14:25:38.259Z,26.15
2018-07-02T14:28:05.566Z,25.27
2018-07-02T14:30:32.839Z,25.55
2018-07-02T14:33:00.158Z,25.51
2018-07-02T14:35:27.414Z,25.58
2018-07-02T14:37:54.925Z,25.68
2018-07-02T14:40:22.259Z,26.41
2018-07-02T14:42:49.595Z,26.07
2018-07-02T14:45:17.029Z,25.91
2018-07-02T14:47:44.150Z,26.25
2018-07-02T14:50:11.675Z,26.12
2018-07-02T14:52:38.949Z,25.78
2018-07-02T14:55:13.072Z,25.32
2018-07-02T14:57:40.345Z,25.08
2018-07-02T15:00:07.647Z,25.52
2018-07-02T15:02:34.978Z,25.46
2018-07-02T15:05:02.455Z,25.11
2018-07-02T15:07:29.735Z,25.35
2018-07-02T15:09:57.021Z,25.05
2018-07-02T15:12:24.256Z,24.92
2018-07-02T15:14:51.563Z,25.24
2018-07-02T15:17:18.822Z,25.42
2018-07-02T15:19:46.133Z,25.36
2018-07-02T15:22:13.375Z,25.16
2018-07-02T15:24:40.793Z,25.06
2018-07-02T15:27:08.051Z,25.07
2018-07-02T15:29:35.357Z,25.11
2018-07-02T15:32:02.695Z,24.95
2018-07-02T15:34:30.023Z,24.89
2018-07-02T15:36:57.306Z,24.67
2018-07-02T15:39:24.679Z,24.62
2018-07-02T15:41:51.982Z,24.77
2018-07-02T15:44:19.304Z,24.64
2018-07-02T15:46:46.615Z,24.63
2018-07-02T15:49:13.911Z,24.72
2018-07-02T15:51:41.241Z,24.77
2018-07-02T15:54:08.521Z,24.63
2018-07-02T15:56:35.789Z,24.43
2018-07-02T15:59:03.111Z,24.32
2018-07-02T16:01:30.399Z,24.26
2018-07-02T16:03:57.667Z,24.26
2018-07-02T16:06:25.095Z,24.24
2018-07-02T16:08:52.366Z,24.21
2018-07-02T16:11:19.955Z,24.20
2018-07-02T16:13:47.219Z,24.20
2018-07-02T16:16:14.505Z,24.05
2018-07-02T16:18:41.724Z,24.04
2018-07-02T16:21:09.018Z,24.30
2018-07-02T16:23:36.283Z,24.16
2018-07-02T16:26:04.225Z,24.05
2018-07-02T16:28:31.514Z,24.07
2018-07-02T16:30:58.850Z,24.18
2018-07-02T16:33:26.146Z,24.13
2018-07-02T16:35:53.463Z,24.04
2018-07-02T16:38:20.714Z,23.96
2018-07-02T16:40:48.250Z,23.85
2018-07-02T16:43:15.483Z,23.85
2018-07-02T16:45:42.776Z,23.73
2018-07-02T16:48:10.080Z,23.81
2018-07-02T16:50:37.416Z,23.72
2018-07-02T16:53:05.056Z,23.69
2018-07-02T16:55:32.436Z,23.82
2018-07-02T16:58:00.659Z,23.80
2018-07-02T17:00:27.911Z,23.73
2018-07-02T17:02:55.209Z,23.50
2018-07-02T17:05:22.471Z,23.49
2018-07-02T17:07:49.855Z,23.45
2018-07-02T17:10:17.128Z,23.48
2018-07-02T17:12:44.386Z,23.42
2018-07-02T17:15:11.679Z,23.50
2018-07-02T17:17:38.967Z,23.41
2018-07-02T17:20:06.660Z,23.14
2018-07-02T17:22:34.050Z,23.07
2018-07-02T17:25:01.344Z,23.10
2018-07-02T17:27:28.973Z,23.09
2018-07-02T17:29:56.230Z,23.07
2018-07-02T17:32:23.522Z,23.13
2018-07-02T17:34:50.787Z,23.12
2018-07-02T17:37:18.196Z,23.05
2018-07-02T17:39:45.542Z,23.01
2018-07-02T17:42:12.827Z,23.03
2018-07-02T17:44:40.134Z,22.94
2018-07-02T17:47:07.559Z,22.82
2018-07-02T17:49:35.372Z,22.74
2018-07-02T17:52:02.683Z,22.66
2018-07-02T17:54:29.998Z,22.56
2018-07-02T17:56:57.316Z,22.58
2018-07-02T17:59:24.566Z,22.49
2018-07-02T18:02:11.579Z,22.50
2018-07-02T18:04:56.032Z,22.37
2018-07-02T18:07:38.644Z,22.36
2018-07-02T18:10:14.826Z,22.30
2018-07-02T18:13:02.240Z,22.25
2018-07-02T18:15:34.925Z,22.19
2018-07-02T18:20:31.363Z,22.04
2018-07-02T18:22:58.683Z,22.00
2018-07-02T18:25:26.031Z,21.94
2018-07-02T18:27:53.441Z,21.89
2018-07-02T18:30:20.827Z,21.74
2018-07-02T18:32:49.891Z,21.67
2018-07-02T18:35:17.277Z,21.62
2018-07-02T18:37:45.635Z,21.51
2018-07-02T18:40:14.822Z,21.44
2018-07-02T18:42:44.426Z,21.39
2018-07-02T18:45:11.959Z,21.34
2018-07-02T18:47:39.351Z,21.17
2018-07-02T18:50:07.238Z,21.08
2018-07-02T18:52:34.511Z,20.99
2018-07-02T18:55:03.087Z,20.92
2018-07-02T18:57:31.266Z,20.89
2018-07-02T18:59:58.699Z,20.77
2018-07-02T19:02:26.166Z,20.74
2018-07-02T19:04:54.105Z,20.69
2018-07-02T19:07:22.041Z,20.61
2018-07-02T19:09:49.873Z,20.58
2018-07-02T19:12:18.456Z,20.48
2018-07-02T19:14:46.249Z,20.40
2018-07-02T19:17:14.029Z,20.36
2018-07-02T19:19:41.539Z,20.29
2018-07-02T19:22:09.352Z,20.18
2018-07-02T19:24:37.067Z,20.00
2018-07-02T19:27:05.078Z,19.79
2018-07-02T19:29:32.689Z,19.60
2018-07-02T19:32:00.843Z,19.27
2018-07-02T19:34:28.516Z,19.08
2018-07-02T19:36:58.395Z,18.85
2018-07-02T19:39:28.133Z,18.77
2018-07-02T19:41:57.829Z,18.76
2018-07-02T19:44:26.209Z,18.70
2018-07-02T19:46:54.574Z,18.58
2018-07-02T19:49:22.337Z,18.47
2018-07-02T19:51:52.714Z,18.38
2018-07-02T19:54:30.915Z,18.34
2018-07-02T19:57:01.846Z,18.19
2018-07-02T19:59:32.761Z,18.09
2018-07-02T20:02:07.852Z,18.04
2018-07-02T20:04:49.962Z,18.05
2018-07-02T20:07:22.526Z,18.02
2018-07-02T20:09:52.901Z,18.03
2018-07-02T20:12:26.949Z,18.05
2018-07-02T20:14:56.209Z,18.00
2018-07-02T20:17:24.867Z,18.04
2018-07-02T20:19:53.483Z,18.02
2018-07-02T20:22:22.426Z,17.99
2018-07-02T20:24:50.939Z,17.91
2018-07-02T20:27:18.346Z,17.88
2018-07-02T20:29:46.554Z,17.82
2018-07-02T20:32:16.446Z,17.59
2018-07-02T20:34:43.946Z,17.39
2018-07-02T20:37:11.358Z,17.31
2018-07-02T20:39:41.481Z,17.29
2018-07-02T20:42:11.925Z,17.27
2018-07-02T20:44:40.060Z,17.17
2018-07-02T20:47:07.344Z,16.96
2018-07-02T20:49:34.607Z,16.88
2018-07-02T20:52:01.897Z,16.78
2018-07-02T20:54:29.270Z,16.66
2018-07-02T20:56:56.571Z,16.50
2018-07-02T20:59:24.356Z,16.37
2018-07-02T21:01:53.953Z,16.22
2018-07-02T21:04:21.327Z,16.20
2018-07-02T21:06:48.578Z,16.17
2018-07-02T21:09:15.850Z,16.07
2018-07-02T21:11:43.102Z,16.04
2018-07-02T21:14:10.416Z,16.09
2018-07-02T21:16:37.733Z,16.09
2018-07-02T21:19:05.654Z,15.98
2018-07-02T21:21:32.931Z,15.94
2018-07-02T21:24:00.198Z,15.91
2018-07-02T21:26:27.513Z,15.81
2018-07-02T21:28:54.780Z,15.79
2018-07-02T21:31:22.070Z,15.77
2018-07-02T21:33:49.382Z,15.69
2018-07-02T21:36:16.643Z,15.52
2018-07-02T21:38:43.963Z,15.31
2018-07-02T21:41:11.262Z,15.15
2018-07-02T21:43:38.553Z,15.04
2018-07-02T21:46:05.857Z,14.98
2018-07-02T21:48:33.137Z,14.94
2018-07-02T21:51:00.454Z,14.97
2018-07-02T21:53:27.764Z,14.92
2018-07-02T21:55:55.072Z,14.78
2018-07-02T21:58:22.350Z,14.73
2018-07-02T22:00:49.628Z,14.68
2018-07-02T22:03:17.269Z,14.61
2018-07-02T22:05:44.557Z,14.47
2018-07-02T22:08:11.861Z,14.42
2018-07-02T22:10:39.415Z,14.37
2018-07-02T22:13:06.714Z,14.35
2018-07-02T22:15:34.362Z,14.33
2018-07-02T22:18:01.744Z,14.30
2018-07-02T22:20:29.034Z,14.22
2018-07-02T22:22:56.320Z,14.22
2018-07-02T22:25:23.677Z,14.25
2018-07-02T22:27:50.974Z,14.26
2018-07-02T22:30:18.258Z,14.12
2018-07-02T22:32:45.563Z,13.99
2018-07-02T22:35:12.969Z,13.94
2018-07-02T22:37:40.267Z,13.79
2018-07-02T22:40:07.670Z,13.65
2018-07-02T22:42:34.962Z,13.51
2018-07-02T22:45:02.265Z,13.38
2018-07-02T22:47:30.089Z,13.26
2018-07-02T22:49:57.359Z,13.27
2018-07-02T22:52:24.617Z,13.22
2018-07-02T22:54:52.014Z,13.25
2018-07-02T22:57:19.493Z,13.21
2018-07-02T22:59:46.779Z,13.30
2018-07-02T23:02:14.618Z,13.27
2018-07-02T23:04:41.893Z,13.20
2018-07-02T23:07:09.276Z,13.05
2018-07-02T23:09:36.863Z,12.87
2018-07-02T23:12:04.297Z,12.88
2018-07-02T23:14:31.601Z,12.90
2018-07-02T23:16:58.886Z,12.89
2018-07-02T23:19:26.154Z,12.89
2018-07-02T23:21:53.411Z,12.95
2018-07-02T23:24:20.652Z,12.96
2018-07-02T23:26:47.896Z,12.84
2018-07-02T23:29:15.151Z,12.49
2018-07-02T23:31:42.410Z,12.37
2018-07-02T23:34:10.458Z,12.40
2018-07-02T23:36:37.723Z,12.50
2018-07-02T23:39:07.902Z,12.35
2018-07-02T23:41:35.147Z,12.19
2018-07-02T23:44:02.697Z,12.14
2018-07-02T23:46:29.982Z,12.13
2018-07-02T23:48:57.219Z,12.06
2018-07-02T23:51:24.502Z,12.09
2018-07-02T23:53:51.742Z,12.11
2018-07-02T23:56:19.002Z,11.93
2018-07-02T23:58:46.248Z,11.86
